Time;durP1;ratioP1;P1;durP2;ratioP2;P2;SDS_P1;SDS_P2;PMS_P1;PMS_P2;Temp;Humidity;BMP_temperature;BMP_pressure;BME280_temperature;BME280_humidity;BME280_pressure;Samples;Min_cycle;Max_cycle;Signal;HPM_P1;HPM_P2
2021/09/25 00:01:39;;;;;;;7.70;5.72;;;;;;;;;;5033378;28;20273;-54
2021/09/25 00:04:04;;;;;;;8.80;6.07;;;;;;;;;;5034765;28;20060;-57
2021/09/25 00:06:29;;;;;;;10.77;6.43;;;;;;;;;;5034504;28;20049;-54
2021/09/25 00:08:56;;;;;;;8.20;6.07;;;;;;;;;;5034718;28;20256;-54
2021/09/25 00:11:22;;;;;;;10.20;6.30;;;;;;;;;;5034661;28;20013;-59
2021/09/25 00:13:47;;;;;;;8.88;5.95;;;;;;;;;;5033068;28;20033;-59
2021/09/25 00:16:14;;;;;;;8.57;6.03;;;;;;;;;;5034505;28;20142;-60
2021/09/25 00:18:46;;;;;;;7.05;5.85;;;;;;;;;;5033190;28;20299;-59
2021/09/25 00:21:11;;;;;;;7.93;6.10;;;;;;;;;;5034405;28;20027;-58
2021/09/25 00:23:36;;;;;;;8.23;6.00;;;;;;;;;;5033314;28;20112;-57
2021/09/25 00:26:02;;;;;;;9.65;6.15;;;;;;;;;;5034250;28;20291;-58
2021/09/25 00:28:27;;;;;;;8.30;6.30;;;;;;;;;;5034288;28;20017;-59
2021/09/25 00:30:55;;;;;;;9.38;5.85;;;;;;;;;;5034187;28;20470;-55
2021/09/25 00:33:26;;;;;;;9.20;6.05;;;;;;;;;;5034229;28;20099;-53
2021/09/25 00:35:58;;;;;;;9.82;6.15;;;;;;;;;;5032853;28;20024;-53
2021/09/25 00:38:29;;;;;;;8.73;5.93;;;;;;;;;;5034048;28;20488;-53
2021/09/25 00:40:58;;;;;;;7.35;5.35;;;;;;;;;;5039241;28;20024;-53
2021/09/25 00:43:24;;;;;;;8.80;5.60;;;;;;;;;;5039015;28;20083;-54
2021/09/25 00:45:49;;;;;;;7.55;5.30;;;;;;;;;;5034016;28;20104;-53
2021/09/25 00:48:14;;;;;;;8.10;5.60;;;;;;;;;;5033833;28;20392;-56
2021/09/25 00:50:39;;;;;;;7.07;5.40;;;;;;;;;;5033925;28;20638;-53
2021/09/25 00:53:08;;;;;;;7.35;5.50;;;;;;;;;;5033786;28;20311;-53
2021/09/25 00:55:34;;;;;;;7.18;5.80;;;;;;;;;;5033658;28;20040;-54
2021/09/25 00:58:03;;;;;;;5.63;4.78;;;;;;;;;;5033720;28;20017;-57
2021/09/25 01:00:29;;;;;;;9.15;5.50;;;;;;;;;;5033770;28;20580;-54
2021/09/25 01:02:57;;;;;;;5.38;4.40;;;;;;;;;;5033611;28;20052;-58
2021/09/25 01:05:23;;;;;;;6.28;5.07;;;;;;;;;;5032279;28;20033;-58
2021/09/25 01:07:49;;;;;;;6.53;4.82;;;;;;;;;;5033581;28;20071;-57
2021/09/25 01:10:18;;;;;;;6.47;4.95;;;;;;;;;;5032409;28;20486;-58
2021/09/25 01:12:43;;;;;;;6.53;5.18;;;;;;;;;;5033356;28;20376;-57
2021/09/25 01:15:08;;;;;;;7.90;5.25;;;;;;;;;;5036168;28;20050;-60
2021/09/25 01:17:43;;;;;;;7.03;5.15;;;;;;;;;;5036778;28;20029;-60
2021/09/25 01:20:12;;;;;;;6.78;4.82;;;;;;;;;;5035817;28;20025;-60
2021/09/25 01:22:37;;;;;;;6.55;4.90;;;;;;;;;;5035513;28;20376;-60
2021/09/25 01:25:06;;;;;;;6.97;4.82;;;;;;;;;;5036711;28;20021;-58
2021/09/25 01:27:37;;;;;;;5.95;4.68;;;;;;;;;;5036734;28;20017;-58
2021/09/25 01:30:12;;;;;;;7.18;5.43;;;;;;;;;;5036591;28;20021;-59
2021/09/25 01:32:38;;;;;;;7.88;4.55;;;;;;;;;;5036214;28;20036;-58
2021/09/25 01:35:04;;;;;;;7.47;4.85;;;;;;;;;;5032930;28;20025;-55
2021/09/25 01:37:29;;;;;;;10.95;4.93;;;;;;;;;;5032810;28;20384;-59
2021/09/25 01:39:54;;;;;;;7.97;4.67;;;;;;;;;;5032884;28;20017;-58
2021/09/25 01:42:19;;;;;;;8.90;5.13;;;;;;;;;;5045050;28;20349;-54
2021/09/25 01:44:46;;;;;;;7.80;4.43;;;;;;;;;;5031618;28;20272;-55
2021/09/25 01:47:14;;;;;;;7.88;4.70;;;;;;;;;;5031717;28;20021;-54
2021/09/25 01:49:39;;;;;;;5.00;4.40;;;;;;;;;;5031047;28;20376;-57
2021/09/25 01:52:20;;;;;;;6.53;4.50;;;;;;;;;;5031216;28;20096;-54
2021/09/25 01:54:48;;;;;;;6.95;5.20;;;;;;;;;;5032152;28;20631;-55
2021/09/25 01:57:15;;;;;;;6.20;4.90;;;;;;;;;;5032632;28;20053;-54
2021/09/25 01:59:40;;;;;;;6.43;4.88;;;;;;;;;;5032624;28;20524;-56
2021/09/25 02:02:06;;;;;;;6.15;4.57;;;;;;;;;;5032500;28;20101;-57
2021/09/25 02:04:35;;;;;;;6.97;4.47;;;;;;;;;;5032379;28;20071;-57
2021/09/25 02:07:06;;;;;;;7.18;4.85;;;;;;;;;;5032439;28;20544;-58
2021/09/25 02:09:32;;;;;;;9.02;5.05;;;;;;;;;;5032327;28;20045;-57
2021/09/25 02:11:57;;;;;;;5.53;4.80;;;;;;;;;;5032824;28;20013;-58
2021/09/25 02:14:48;;;;;;;6.05;4.68;;;;;;;;;;5030771;28;20280;-57
2021/09/25 02:17:13;;;;;;;8.60;4.72;;;;;;;;;;5032306;28;20037;-58
2021/09/25 02:19:39;;;;;;;5.00;4.50;;;;;;;;;;5030946;28;20499;-56
2021/09/25 02:22:07;;;;;;;6.13;5.22;;;;;;;;;;5032022;28;20022;-57
2021/09/25 02:24:39;;;;;;;6.70;5.15;;;;;;;;;;5031962;28;20025;-58
2021/09/25 02:27:07;;;;;;;8.20;5.15;;;;;;;;;;5032143;28;20519;-55
2021/09/25 02:29:32;;;;;;;8.73;5.50;;;;;;;;;;5032080;28;20017;-59
2021/09/25 02:32:01;;;;;;;6.47;5.03;;;;;;;;;;5030878;28;20396;-54
2021/09/25 02:34:29;;;;;;;6.53;4.47;;;;;;;;;;5032149;28;20084;-57
2021/09/25 02:36:58;;;;;;;6.95;5.18;;;;;;;;;;5032181;28;20030;-54
2021/09/25 02:39:35;;;;;;;6.30;4.80;;;;;;;;;;5030944;28;20029;-54
2021/09/25 02:42:01;;;;;;;6.68;5.00;;;;;;;;;;5044105;28;20025;-55
2021/09/25 02:44:29;;;;;;;6.75;5.38;;;;;;;;;;5032017;28;20052;-57
2021/09/25 02:46:54;;;;;;;6.55;4.95;;;;;;;;;;5032710;28;20036;-58
2021/09/25 02:49:23;;;;;;;7.75;5.30;;;;;;;;;;5036064;28;20013;-57
2021/09/25 02:51:48;;;;;;;6.63;5.13;;;;;;;;;;5036040;28;20037;-57
2021/09/25 02:54:17;;;;;;;11.65;4.97;;;;;;;;;;5034649;28;20495;-56
2021/09/25 02:56:51;;;;;;;7.80;5.38;;;;;;;;;;5035669;28;20577;-56
2021/09/25 02:59:16;;;;;;;10.20;5.05;;;;;;;;;;5035716;28;20021;-56
2021/09/25 03:01:41;;;;;;;6.53;5.22;;;;;;;;;;5034330;28;20419;-56
2021/09/25 03:04:10;;;;;;;6.70;5.30;;;;;;;;;;5035985;28;20029;-57
2021/09/25 03:06:35;;;;;;;7.95;5.10;;;;;;;;;;5035606;28;20022;-58
2021/09/25 03:09:03;;;;;;;7.03;5.43;;;;;;;;;;5035594;28;20514;-59
2021/09/25 03:11:28;;;;;;;8.63;5.72;;;;;;;;;;5035543;28;20340;-59
2021/09/25 03:13:57;;;;;;;5.95;5.03;;;;;;;;;;5035418;28;20120;-58
2021/09/25 03:16:22;;;;;;;9.45;5.93;;;;;;;;;;5035556;28;20044;-59
2021/09/25 03:18:53;;;;;;;6.07;5.00;;;;;;;;;;5034342;28;20026;-58
2021/09/25 03:21:19;;;;;;;6.53;4.80;;;;;;;;;;5035832;28;20268;-57
2021/09/25 03:23:47;;;;;;;7.85;5.55;;;;;;;;;;5035181;28;20533;-59
2021/09/25 03:26:12;;;;;;;6.78;5.28;;;;;;;;;;5034079;28;20037;-58
2021/09/25 03:28:43;;;;;;;8.83;5.40;;;;;;;;;;5033946;28;20381;-59
2021/09/25 03:31:09;;;;;;;6.45;5.15;;;;;;;;;;5035435;28;20264;-54
2021/09/25 03:33:34;;;;;;;6.18;4.80;;;;;;;;;;5033972;28;20028;-59
2021/09/25 03:36:06;;;;;;;7.47;5.25;;;;;;;;;;5034939;28;20480;-57
2021/09/25 03:38:31;;;;;;;6.00;5.22;;;;;;;;;;5035265;28;20468;-59
2021/09/25 03:41:00;;;;;;;6.72;5.00;;;;;;;;;;5041830;28;20035;-58
2021/09/25 03:43:28;;;;;;;6.43;4.65;;;;;;;;;;5041136;28;20045;-59
2021/09/25 03:45:54;;;;;;;9.05;5.57;;;;;;;;;;5035022;28;20068;-58
2021/09/25 03:48:19;;;;;;;6.35;5.15;;;;;;;;;;5034596;28;20469;-57
2021/09/25 03:50:44;;;;;;;6.87;4.77;;;;;;;;;;5034925;28;20061;-57
2021/09/25 03:53:09;;;;;;;6.25;4.82;;;;;;;;;;5033308;28;20018;-58
2021/09/25 03:55:35;;;;;;;7.13;5.10;;;;;;;;;;5034100;28;20484;-55
2021/09/25 03:58:00;;;;;;;8.10;4.95;;;;;;;;;;5034418;28;20256;-59
2021/09/25 04:00:25;;;;;;;6.30;5.13;;;;;;;;;;5034765;28;20078;-57
2021/09/25 04:02:51;;;;;;;6.82;5.35;;;;;;;;;;5034771;28;20602;-58
2021/09/25 04:05:17;;;;;;;9.63;5.50;;;;;;;;;;5034371;28;20029;-57
2021/09/25 04:07:46;;;;;;;8.63;5.43;;;;;;;;;;5033308;28;20112;-58
2021/09/25 04:10:17;;;;;;;9.00;5.72;;;;;;;;;;5034675;28;20017;-58
2021/09/25 04:12:48;;;;;;;6.78;5.40;;;;;;;;;;5034500;28;20025;-56
2021/09/25 04:15:20;;;;;;;7.70;4.93;;;;;;;;;;5034286;28;20037;-59
2021/09/25 04:17:48;;;;;;;6.22;4.75;;;;;;;;;;5034327;28;20029;-57
2021/09/25 04:20:16;;;;;;;9.85;5.20;;;;;;;;;;5034343;28;20365;-59
2021/09/25 04:22:42;;;;;;;7.18;4.43;;;;;;;;;;5034306;28;20108;-59
2021/09/25 04:25:07;;;;;;;6.83;4.43;;;;;;;;;;5032941;28;20175;-59
2021/09/25 04:27:32;;;;;;;8.52;4.60;;;;;;;;;;5034276;28;20506;-59
2021/09/25 04:29:58;;;;;;;5.22;4.28;;;;;;;;;;5034218;28;20472;-59
2021/09/25 04:32:24;;;;;;;5.78;4.30;;;;;;;;;;5034105;28;20021;-58
2021/09/25 04:34:49;;;;;;;5.18;4.10;;;;;;;;;;5032819;28;20052;-58
2021/09/25 04:37:15;;;;;;;7.35;3.90;;;;;;;;;;5034112;28;20449;-59
2021/09/25 04:39:40;;;;;;;5.57;4.10;;;;;;;;;;5034231;28;20018;-60
2021/09/25 04:42:05;;;;;;;5.80;4.40;;;;;;;;;;5045938;28;20268;-54
2021/09/25 04:44:33;;;;;;;7.15;4.20;;;;;;;;;;5033849;28;20264;-57
2021/09/25 04:46:58;;;;;;;7.50;4.63;;;;;;;;;;5032608;28;20455;-59
2021/09/25 04:49:26;;;;;;;6.77;4.20;;;;;;;;;;5033735;28;20072;-55
2021/09/25 04:51:51;;;;;;;5.40;4.18;;;;;;;;;;5033808;28;20260;-56
2021/09/25 04:54:17;;;;;;;5.60;4.17;;;;;;;;;;5033715;28;20043;-57
2021/09/25 04:56:48;;;;;;;4.80;3.90;;;;;;;;;;5033538;28;20264;-59
2021/09/25 04:59:28;;;;;;;4.90;3.85;;;;;;;;;;5032331;28;20616;-57
2021/09/25 05:01:56;;;;;;;5.75;4.55;;;;;;;;;;5033552;28;20025;-58
2021/09/25 05:04:21;;;;;;;6.95;4.55;;;;;;;;;;5033525;28;20071;-58
2021/09/25 05:06:47;;;;;;;5.38;4.30;;;;;;;;;;5033454;28;20021;-59
2021/09/25 05:09:12;;;;;;;7.35;4.18;;;;;;;;;;5032878;28;20020;-59
2021/09/25 05:11:37;;;;;;;8.23;4.60;;;;;;;;;;5033025;28;20018;-59
2021/09/25 05:14:03;;;;;;;5.22;4.07;;;;;;;;;;5031759;28;20814;-59
2021/09/25 05:16:28;;;;;;;6.13;4.82;;;;;;;;;;5033222;28;20025;-58
2021/09/25 05:18:53;;;;;;;5.13;4.15;;;;;;;;;;5033357;28;20476;-59
2021/09/25 05:21:19;;;;;;;5.70;4.27;;;;;;;;;;5031932;28;20021;-58
2021/09/25 05:23:50;;;;;;;7.22;4.50;;;;;;;;;;5033234;28;20268;-59
2021/09/25 05:26:16;;;;;;;8.60;4.25;;;;;;;;;;5033052;28;20021;-58
2021/09/25 05:28:44;;;;;;;8.52;4.47;;;;;;;;;;5032888;28;20025;-59
2021/09/25 05:31:18;;;;;;;8.57;4.47;;;;;;;;;;5032905;28;20022;-56
2021/09/25 05:33:43;;;;;;;6.70;4.78;;;;;;;;;;5031670;28;20021;-59
2021/09/25 05:36:08;;;;;;;6.17;4.20;;;;;;;;;;5029756;28;20429;-57
2021/09/25 05:38:34;;;;;;;6.70;4.53;;;;;;;;;;5029783;28;20622;-59
2021/09/25 05:40:59;;;;;;;6.30;4.55;;;;;;;;;;5033324;28;20879;-59
2021/09/25 05:43:24;;;;;;;4.93;3.80;;;;;;;;;;5019472;28;20093;-59
2021/09/25 05:45:50;;;;;;;5.82;4.38;;;;;;;;;;5026617;28;20026;-56
2021/09/25 05:48:18;;;;;;;6.07;4.47;;;;;;;;;;5029683;28;20164;-56
2021/09/25 05:50:43;;;;;;;5.60;4.40;;;;;;;;;;5022823;28;20029;-56
2021/09/25 05:53:11;;;;;;;7.60;4.63;;;;;;;;;;5022848;28;20285;-59
2021/09/25 05:55:37;;;;;;;5.45;4.40;;;;;;;;;;5017091;28;20026;-58
2021/09/25 05:58:03;;;;;;;7.13;4.18;;;;;;;;;;5020833;28;20026;-60
2021/09/25 06:00:28;;;;;;;8.07;5.40;;;;;;;;;;5022152;28;20104;-59
2021/09/25 06:02:54;;;;;;;6.38;4.50;;;;;;;;;;5023779;28;20072;-56
2021/09/25 06:05:19;;;;;;;5.32;4.15;;;;;;;;;;5029283;28;20014;-59
2021/09/25 06:07:44;;;;;;;6.83;4.40;;;;;;;;;;5019787;28;20547;-58
2021/09/25 06:10:10;;;;;;;6.57;4.67;;;;;;;;;;4971149;28;20993;-56
2021/09/25 06:12:35;;;;;;;5.65;4.30;;;;;;;;;;5033227;28;20334;-57
2021/09/25 06:15:00;;;;;;;6.30;5.00;;;;;;;;;;5032144;28;20124;-55
2021/09/25 06:17:26;;;;;;;6.10;4.68;;;;;;;;;;5032193;28;20060;-56
2021/09/25 06:19:51;;;;;;;6.50;4.60;;;;;;;;;;5030928;28;20017;-59
2021/09/25 06:22:16;;;;;;;5.45;4.40;;;;;;;;;;5030667;28;20683;-60
2021/09/25 06:24:41;;;;;;;8.25;4.38;;;;;;;;;;5027683;28;20160;-57
2021/09/25 06:27:07;;;;;;;9.50;4.73;;;;;;;;;;5030934;28;20025;-58
2021/09/25 06:29:41;;;;;;;7.95;5.20;;;;;;;;;;5031927;28;20307;-59
2021/09/25 06:32:07;;;;;;;6.60;4.68;;;;;;;;;;5032189;28;20143;-59
2021/09/25 06:34:32;;;;;;;6.82;5.00;;;;;;;;;;5030949;28;20481;-60
2021/09/25 06:36:57;;;;;;;6.78;5.03;;;;;;;;;;5032052;28;20072;-60
2021/09/25 06:39:23;;;;;;;9.40;5.20;;;;;;;;;;5030555;28;20163;-58
2021/09/25 06:41:48;;;;;;;7.47;5.30;;;;;;;;;;5032174;28;20029;-60
2021/09/25 06:44:13;;;;;;;9.10;5.57;;;;;;;;;;5032054;28;20334;-60
2021/09/25 06:46:41;;;;;;;7.20;5.63;;;;;;;;;;5030533;28;20018;-60
2021/09/25 06:49:06;;;;;;;8.52;6.32;;;;;;;;;;5030385;28;20256;-60
2021/09/25 06:51:31;;;;;;;8.55;6.32;;;;;;;;;;5032040;28;20388;-59
2021/09/25 06:53:57;;;;;;;8.93;7.20;;;;;;;;;;5047033;28;20023;-58
2021/09/25 06:56:23;;;;;;;9.10;7.37;;;;;;;;;;5031788;28;20044;-56
2021/09/25 06:58:51;;;;;;;10.90;8.95;;;;;;;;;;5031627;28;20338;-56
2021/09/25 07:01:18;;;;;;;15.52;10.90;;;;;;;;;;5031947;28;20472;-55
2021/09/25 07:03:44;;;;;;;16.67;12.30;;;;;;;;;;5030525;28;20095;-55
2021/09/25 07:06:09;;;;;;;21.50;14.00;;;;;;;;;;5031950;28;20021;-59
2021/09/25 07:08:34;;;;;;;29.83;18.70;;;;;;;;;;5031649;28;20840;-59
2021/09/25 07:10:59;;;;;;;18.70;14.63;;;;;;;;;;5034116;28;20041;-57
2021/09/25 07:13:25;;;;;;;15.17;12.13;;;;;;;;;;5037656;28;20033;-60
2021/09/25 07:15:50;;;;;;;12.95;8.45;;;;;;;;;;5031701;28;20029;-60
2021/09/25 07:18:16;;;;;;;8.80;6.28;;;;;;;;;;5031201;28;20531;-60
2021/09/25 07:20:41;;;;;;;7.05;5.63;;;;;;;;;;5030490;28;20024;-59
2021/09/25 07:23:07;;;;;;;5.53;4.25;;;;;;;;;;5031378;28;20159;-59
2021/09/25 07:25:33;;;;;;;5.47;4.30;;;;;;;;;;5031517;28;20403;-59
2021/09/25 07:27:58;;;;;;;4.45;3.88;;;;;;;;;;5031605;28;20013;-59
2021/09/25 07:30:24;;;;;;;4.57;3.83;;;;;;;;;;5030584;28;20021;-59
2021/09/25 07:32:49;;;;;;;4.70;3.58;;;;;;;;;;5031183;28;20427;-60
2021/09/25 07:35:15;;;;;;;5.32;3.42;;;;;;;;;;5035051;28;20018;-55
2021/09/25 07:37:41;;;;;;;4.32;2.95;;;;;;;;;;5033678;28;20076;-56
2021/09/25 07:40:07;;;;;;;4.90;3.10;;;;;;;;;;5033720;28;20022;-55
2021/09/25 07:42:32;;;;;;;5.65;3.33;;;;;;;;;;5050389;28;20025;-55
2021/09/25 07:44:57;;;;;;;4.17;2.70;;;;;;;;;;5033467;28;20036;-55
2021/09/25 07:47:25;;;;;;;5.30;2.92;;;;;;;;;;5035010;28;20796;-59
2021/09/25 07:49:51;;;;;;;3.15;2.80;;;;;;;;;;5034864;28;20500;-59
2021/09/25 07:52:17;;;;;;;3.60;2.83;;;;;;;;;;5034756;28;20018;-59
2021/09/25 07:54:42;;;;;;;3.97;3.22;;;;;;;;;;5034602;28;20017;-60
2021/09/25 07:57:07;;;;;;;3.50;2.80;;;;;;;;;;5033513;28;20028;-57
2021/09/25 07:59:32;;;;;;;4.67;2.70;;;;;;;;;;5034975;28;20028;-59
2021/09/25 08:01:58;;;;;;;3.95;3.20;;;;;;;;;;5033354;28;20639;-60
2021/09/25 08:04:23;;;;;;;3.95;3.30;;;;;;;;;;5016806;28;20021;-59
2021/09/25 08:06:48;;;;;;;4.40;3.65;;;;;;;;;;5034202;28;20014;-59
2021/09/25 08:09:14;;;;;;;4.63;3.00;;;;;;;;;;5034547;28;20046;-60
2021/09/25 08:11:39;;;;;;;5.13;3.30;;;;;;;;;;5040674;28;20008;-57
2021/09/25 08:14:04;;;;;;;3.40;3.10;;;;;;;;;;5040245;28;20050;-54
2021/09/25 08:16:30;;;;;;;4.45;3.17;;;;;;;;;;5034408;28;20765;-55
2021/09/25 08:18:56;;;;;;;3.75;3.28;;;;;;;;;;5034338;28;20029;-58
2021/09/25 08:21:22;;;;;;;6.30;3.20;;;;;;;;;;5034216;28;20021;-54
2021/09/25 08:23:47;;;;;;;4.20;3.30;;;;;;;;;;5034191;28;20025;-54
2021/09/25 08:26:13;;;;;;;4.37;2.83;;;;;;;;;;5034170;28;20108;-58
2021/09/25 08:28:38;;;;;;;4.18;3.63;;;;;;;;;;5034295;28;20268;-61
2021/09/25 08:31:03;;;;;;;3.40;3.05;;;;;;;;;;5032967;28;20017;-60
2021/09/25 08:33:28;;;;;;;3.77;2.83;;;;;;;;;;5030634;28;20372;-59
2021/09/25 08:35:55;;;;;;;3.40;3.05;;;;;;;;;;5031562;28;20272;-59
2021/09/25 08:38:20;;;;;;;4.90;2.78;;;;;;;;;;5033370;28;20021;-58
2021/09/25 08:40:45;;;;;;;4.85;2.72;;;;;;;;;;5032088;28;20028;-59
2021/09/25 08:43:10;;;;;;;3.40;2.95;;;;;;;;;;5032732;28;20535;-61
2021/09/25 08:45:36;;;;;;;4.27;2.80;;;;;;;;;;5031983;28;20029;-58
2021/09/25 08:48:01;;;;;;;4.30;3.30;;;;;;;;;;5033297;28;20295;-58
2021/09/25 08:50:26;;;;;;;3.78;3.08;;;;;;;;;;5033124;28;20049;-59
2021/09/25 08:52:52;;;;;;;5.72;3.00;;;;;;;;;;5032375;28;20036;-61
2021/09/25 08:55:17;;;;;;;3.93;2.90;;;;;;;;;;5032957;28;20029;-60
2021/09/25 08:57:43;;;;;;;3.95;2.92;;;;;;;;;;5033096;28;20283;-59
2021/09/25 09:00:26;;;;;;;5.28;2.80;;;;;;;;;;5033218;28;20488;-59
2021/09/25 09:02:52;;;;;;;7.50;3.10;;;;;;;;;;5030066;28;20040;-60
2021/09/25 09:05:30;;;;;;;3.67;3.00;;;;;;;;;;5030212;28;20033;-59
2021/09/25 09:07:59;;;;;;;4.40;2.85;;;;;;;;;;5029132;28;20075;-60
2021/09/25 09:10:32;;;;;;;4.05;2.80;;;;;;;;;;5033504;28;20018;-54
2021/09/25 09:13:00;;;;;;;4.60;3.40;;;;;;;;;;5046909;28;20018;-54
2021/09/25 09:15:31;;;;;;;3.85;3.25;;;;;;;;;;5033337;28;20049;-56
2021/09/25 09:17:57;;;;;;;4.13;3.35;;;;;;;;;;5031922;28;20032;-54
2021/09/25 09:20:22;;;;;;;4.25;3.22;;;;;;;;;;5033303;28;20029;-58
2021/09/25 09:22:47;;;;;;;4.13;3.60;;;;;;;;;;5033177;28;20437;-57
2021/09/25 09:25:13;;;;;;;4.85;3.42;;;;;;;;;;5031892;28;20644;-58
2021/09/25 09:27:43;;;;;;;3.43;3.13;;;;;;;;;;5033054;28;20523;-60
2021/09/25 09:30:09;;;;;;;3.83;3.42;;;;;;;;;;5033014;28;20260;-59
2021/09/25 09:32:41;;;;;;;4.10;3.60;;;;;;;;;;5031892;28;20045;-59
2021/09/25 09:35:14;;;;;;;4.55;3.47;;;;;;;;;;5033032;28;20018;-57
2021/09/25 09:37:39;;;;;;;3.70;3.30;;;;;;;;;;5032833;28;20450;-60
2021/09/25 09:40:06;;;;;;;3.63;3.00;;;;;;;;;;5031772;28;20199;-56
2021/09/25 09:42:32;;;;;;;4.03;3.05;;;;;;;;;;5032845;28;20048;-58
2021/09/25 09:44:58;;;;;;;3.35;2.85;;;;;;;;;;5032536;28;20437;-58
2021/09/25 09:47:23;;;;;;;5.60;3.33;;;;;;;;;;5032796;28;20128;-58
2021/09/25 09:49:52;;;;;;;7.10;3.10;;;;;;;;;;5032846;28;20021;-58
2021/09/25 09:52:17;;;;;;;3.85;3.13;;;;;;;;;;5032837;28;20256;-58
2021/09/25 09:54:46;;;;;;;3.90;3.15;;;;;;;;;;5032466;28;20032;-57
2021/09/25 09:57:12;;;;;;;3.88;3.40;;;;;;;;;;5032226;28;20026;-57
2021/09/25 09:59:45;;;;;;;7.10;3.42;;;;;;;;;;5032682;28;20072;-56
2021/09/25 10:02:10;;;;;;;;;;;;;;;;;;5031777;28;20028;-58
2021/09/25 10:04:36;;;;;;;4.20;3.03;;;;;;;;;;5032456;28;19905;-57
2021/09/25 10:07:02;;;;;;;3.30;3.00;;;;;;;;;;5032548;28;20036;-57
2021/09/25 10:09:29;;;;;;;5.78;2.80;;;;;;;;;;5032498;28;20017;-58
2021/09/25 10:12:02;;;;;;;4.90;3.30;;;;;;;;;;5039304;28;20025;-58
2021/09/25 10:14:32;;;;;;;4.03;3.08;;;;;;;;;;5036097;28;20042;-57
2021/09/25 10:17:05;;;;;;;4.72;3.20;;;;;;;;;;5032403;28;20029;-58
2021/09/25 10:19:31;;;;;;;4.28;3.40;;;;;;;;;;5032368;28;20021;-57
2021/09/25 10:22:02;;;;;;;3.38;3.08;;;;;;;;;;5032298;28;20032;-57
2021/09/25 10:24:42;;;;;;;3.78;3.30;;;;;;;;;;5032153;28;20025;-58
2021/09/25 10:27:11;;;;;;;4.93;3.35;;;;;;;;;;5031937;28;20121;-58
2021/09/25 10:29:49;;;;;;;4.05;3.25;;;;;;;;;;5030930;28;20492;-57
2021/09/25 10:32:17;;;;;;;5.15;3.47;;;;;;;;;;5032159;28;20494;-58
2021/09/25 10:35:01;;;;;;;3.20;2.90;;;;;;;;;;5032073;28;20018;-58
2021/09/25 10:37:33;;;;;;;5.32;3.35;;;;;;;;;;5047923;28;20482;-58
2021/09/25 10:39:58;;;;;;;;;;;;;;;;;;5031247;28;20040;-58
2021/09/25 10:42:57;;;;;;;4.35;3.22;;;;;;;;;;5032110;28;19905;-57
2021/09/25 10:45:25;;;;;;;4.60;3.22;;;;;;;;;;5009345;28;20065;-57
2021/09/25 10:48:12;;;;;;;3.65;3.13;;;;;;;;;;5032086;28;20021;-52
2021/09/25 10:50:39;;;;;;;3.53;3.10;;;;;;;;;;5030693;28;20017;-58
2021/09/25 10:53:14;;;;;;;4.80;2.92;;;;;;;;;;5031926;28;20041;-58
2021/09/25 10:55:40;;;;;;;3.58;3.28;;;;;;;;;;5030630;28;20030;-58
2021/09/25 10:58:26;;;;;;;4.28;3.17;;;;;;;;;;5032044;28;20439;-57
2021/09/25 11:01:00;;;;;;;4.72;3.58;;;;;;;;;;5030628;28;20067;-57
2021/09/25 11:03:46;;;;;;;4.00;3.60;;;;;;;;;;5032153;28;20437;-58
2021/09/25 11:06:14;;;;;;;4.55;3.30;;;;;;;;;;5031898;28;20203;-58
2021/09/25 11:08:53;;;;;;;5.65;3.40;;;;;;;;;;5033878;28;20020;-58
2021/09/25 11:11:26;;;;;;;3.83;3.42;;;;;;;;;;5037601;28;20023;-57
2021/09/25 11:14:00;;;;;;;4.50;3.15;;;;;;;;;;5044399;28;20578;-58
2021/09/25 11:16:47;;;;;;;3.47;3.10;;;;;;;;;;5035472;28;20033;-57
2021/09/25 11:19:22;;;;;;;3.40;3.10;;;;;;;;;;5035601;28;20193;-58
2021/09/25 11:21:51;;;;;;;3.88;3.25;;;;;;;;;;5035493;28;20036;-57
2021/09/25 11:24:19;;;;;;;3.17;2.97;;;;;;;;;;5035399;28;20484;-58
2021/09/25 11:26:45;;;;;;;3.30;3.00;;;;;;;;;;5035285;28;20384;-58
2021/09/25 11:29:10;;;;;;;4.10;3.45;;;;;;;;;;5035301;28;20268;-58
2021/09/25 11:31:36;;;;;;;3.65;3.33;;;;;;;;;;5034131;28;20064;-52
2021/09/25 11:34:21;;;;;;;3.33;3.00;;;;;;;;;;5035241;28;20472;-58
2021/09/25 11:36:50;;;;;;;3.50;3.15;;;;;;;;;;5033784;28;20025;-54
2021/09/25 11:39:19;;;;;;;3.22;2.92;;;;;;;;;;5035057;28;20025;-58
2021/09/25 11:42:03;;;;;;;4.15;3.10;;;;;;;;;;5033830;28;20017;-56
2021/09/25 11:44:45;;;;;;;7.35;3.30;;;;;;;;;;5035044;28;20033;-58
2021/09/25 11:47:18;;;;;;;4.35;2.42;;;;;;;;;;5035529;28;20384;-53
2021/09/25 11:49:46;;;;;;;4.15;3.17;;;;;;;;;;5033429;28;20104;-55
2021/09/25 11:52:11;;;;;;;4.78;3.47;;;;;;;;;;5034844;28;20021;-56
2021/09/25 11:54:37;;;;;;;4.80;3.20;;;;;;;;;;5033572;28;20499;-57
2021/09/25 11:57:13;;;;;;;3.50;3.10;;;;;;;;;;5034830;28;20292;-58
2021/09/25 11:59:38;;;;;;;3.90;3.47;;;;;;;;;;5033540;28;20026;-59
2021/09/25 12:02:10;;;;;;;3.73;3.00;;;;;;;;;;5033581;28;20105;-58
2021/09/25 12:04:41;;;;;;;3.58;3.28;;;;;;;;;;5034573;28;20268;-58
2021/09/25 12:07:09;;;;;;;3.33;3.03;;;;;;;;;;5034793;28;20048;-58
2021/09/25 12:09:41;;;;;;;4.28;3.03;;;;;;;;;;5034530;28;20416;-58
2021/09/25 12:12:06;;;;;;;3.47;3.17;;;;;;;;;;5034780;28;20100;-57
2021/09/25 12:14:42;;;;;;;3.33;2.65;;;;;;;;;;5034316;28;20120;-57
2021/09/25 12:17:14;;;;;;;3.15;2.90;;;;;;;;;;5034500;28;20338;-59
2021/09/25 12:19:46;;;;;;;5.00;2.97;;;;;;;;;;5032799;28;20023;-58
2021/09/25 12:22:23;;;;;;;4.05;2.85;;;;;;;;;;5033126;28;20039;-59
2021/09/25 12:24:48;;;;;;;3.85;3.47;;;;;;;;;;5034434;28;20042;-58
2021/09/25 12:27:24;;;;;;;3.20;2.90;;;;;;;;;;5034115;28;20072;-59
2021/09/25 12:29:49;;;;;;;3.25;2.95;;;;;;;;;;5034381;28;20057;-58
2021/09/25 12:32:18;;;;;;;4.70;2.80;;;;;;;;;;5034424;28;20072;-57
2021/09/25 12:34:50;;;;;;;4.35;3.10;;;;;;;;;;5032777;28;20018;-58
2021/09/25 12:37:15;;;;;;;3.60;3.30;;;;;;;;;;5032980;28;20056;-58
2021/09/25 12:39:44;;;;;;;3.97;3.50;;;;;;;;;;5033894;28;20067;-59
2021/09/25 12:42:22;;;;;;;3.65;3.33;;;;;;;;;;5034033;28;20017;-58
2021/09/25 12:44:47;;;;;;;3.45;2.88;;;;;;;;;;5033682;28;20025;-59
2021/09/25 12:47:12;;;;;;;6.38;3.40;;;;;;;;;;5033906;28;20032;-58
2021/09/25 12:49:42;;;;;;;6.13;4.10;;;;;;;;;;5032675;28;20469;-59
2021/09/25 12:52:08;;;;;;;4.07;3.30;;;;;;;;;;5033798;28;20287;-59
2021/09/25 12:54:37;;;;;;;3.97;3.53;;;;;;;;;;5032363;28;20022;-57
2021/09/25 12:57:15;;;;;;;4.80;3.72;;;;;;;;;;5033726;28;20025;-58
2021/09/25 12:59:44;;;;;;;3.78;3.03;;;;;;;;;;5033608;28;20060;-59
2021/09/25 13:02:18;;;;;;;4.38;3.25;;;;;;;;;;5032465;28;20018;-58
2021/09/25 13:05:10;;;;;;;4.78;3.40;;;;;;;;;;5033365;28;20049;-59
2021/09/25 13:07:55;;;;;;;3.80;3.40;;;;;;;;;;5031595;28;20080;-59
2021/09/25 13:10:46;;;;;;;4.93;3.60;;;;;;;;;;5033028;28;20272;-57
2021/09/25 13:13:18;;;;;;;5.68;3.40;;;;;;;;;;5045347;28;20028;-57
2021/09/25 13:15:44;;;;;;;4.13;3.72;;;;;;;;;;5033393;28;20060;-58
2021/09/25 13:18:09;;;;;;;4.57;3.30;;;;;;;;;;5033339;28;20476;-59
2021/09/25 13:20:41;;;;;;;3.80;3.50;;;;;;;;;;5033319;28;20557;-59
2021/09/25 13:23:19;;;;;;;3.47;3.17;;;;;;;;;;5033285;28;20017;-59
2021/09/25 13:25:44;;;;;;;3.53;3.20;;;;;;;;;;5033016;28;20056;-58
2021/09/25 13:28:14;;;;;;;5.50;3.83;;;;;;;;;;5033141;28;20453;-58
2021/09/25 13:30:39;;;;;;;5.13;3.45;;;;;;;;;;5032399;28;20025;-59
2021/09/25 13:33:04;;;;;;;3.78;3.47;;;;;;;;;;5032957;28;20432;-55
2021/09/25 13:35:30;;;;;;;4.20;3.45;;;;;;;;;;5033047;28;20056;-56
2021/09/25 13:37:57;;;;;;;4.60;3.63;;;;;;;;;;5032633;28;20387;-57
2021/09/25 13:40:32;;;;;;;4.25;3.60;;;;;;;;;;5032794;28;20271;-57
2021/09/25 13:43:09;;;;;;;5.78;3.83;;;;;;;;;;5032938;28;20029;-58
2021/09/25 13:45:34;;;;;;;4.72;3.92;;;;;;;;;;5032684;28;20025;-57
2021/09/25 13:47:59;;;;;;;5.30;4.03;;;;;;;;;;5032918;28;20024;-59
2021/09/25 13:50:25;;;;;;;4.10;3.75;;;;;;;;;;5032675;28;20264;-59
2021/09/25 13:52:51;;;;;;;5.00;4.10;;;;;;;;;;5032728;28;20044;-59
2021/09/25 13:55:16;;;;;;;6.28;4.35;;;;;;;;;;5014790;28;20295;-58
2021/09/25 13:57:42;;;;;;;5.07;4.53;;;;;;;;;;5032693;28;20460;-58
2021/09/25 14:00:07;;;;;;;6.60;4.60;;;;;;;;;;5032587;28;20430;-59
2021/09/25 14:02:33;;;;;;;5.05;4.55;;;;;;;;;;5032895;28;20484;-58
2021/09/25 14:04:58;;;;;;;5.32;4.05;;;;;;;;;;5032497;28;20021;-59
2021/09/25 14:07:26;;;;;;;5.73;4.00;;;;;;;;;;5032288;28;20021;-59
2021/09/25 14:10:01;;;;;;;7.65;4.07;;;;;;;;;;5032187;28;20272;-59
2021/09/25 14:12:26;;;;;;;4.90;4.25;;;;;;;;;;5032901;28;20021;-59
2021/09/25 14:14:51;;;;;;;5.07;4.53;;;;;;;;;;5030645;28;20053;-59
2021/09/25 14:17:16;;;;;;;7.32;4.40;;;;;;;;;;5031173;28;20075;-59
2021/09/25 14:19:42;;;;;;;5.67;4.90;;;;;;;;;;5032260;28;20415;-59
2021/09/25 14:22:07;;;;;;;4.55;3.80;;;;;;;;;;5032539;28;20272;-60
2021/09/25 14:24:32;;;;;;;5.15;4.25;;;;;;;;;;5032238;28;20515;-59
2021/09/25 14:26:57;;;;;;;5.82;4.30;;;;;;;;;;5030567;28;20032;-57
2021/09/25 14:29:27;;;;;;;5.70;4.63;;;;;;;;;;5032217;28;20017;-59
2021/09/25 14:31:53;;;;;;;5.50;4.82;;;;;;;;;;5025518;28;20287;-59
2021/09/25 14:34:18;;;;;;;6.10;4.80;;;;;;;;;;5036680;28;20476;-56
2021/09/25 14:36:44;;;;;;;7.60;4.57;;;;;;;;;;5033236;28;20036;-54
2021/09/25 14:39:10;;;;;;;8.00;4.90;;;;;;;;;;5030923;28;20029;-57
2021/09/25 14:41:35;;;;;;;5.85;4.30;;;;;;;;;;5034609;28;20036;-55
2021/09/25 14:44:01;;;;;;;5.82;4.63;;;;;;;;;;5055717;28;20037;-59
2021/09/25 14:46:29;;;;;;;5.18;4.38;;;;;;;;;;5043324;28;20028;-58
2021/09/25 14:48:54;;;;;;;6.38;4.68;;;;;;;;;;5035621;28;20017;-58